Latest Weather Observations for Casino

IDN60801

Issued at 8:16 pm EDT Saturday 20 December 2014 (issued every 30 minutes, with the page automatically refreshed every 10 minutes)

About weather observations | Map of weather stations | Latest weather observations for NSW | Other Formats
Station Details ID: 058208 Name: CASINO AIRPORT AWS Lat: -28.88 Lon: 153.06 Height: 20.9 m
Data from the previous 72 hours. | See also: Recent months at Casino
Date/Time
EDT
Temp
°C
App
Temp
°C
Dew
Point
Rel
Hum
%
Delta-T
°C
Wind Press
QNH
hPa
Press
MSL
hPa
Rain
since 9 am
mm
Dir
 
Spd
km/h
Gust
km/h
Spd
kts
Gust
kts
20/08:00pm 21.9 21.2 15.5 67 3.8 E 13 15 7 8 1016.0 1015.9 0.0
20/07:30pm 23.0 21.2 15.6 63 4.4 E 19 22 10 12 1015.6 1015.5 0.0
20/07:00pm 24.0 21.3 15.5 59 5.1 E 24 32 13 17 1015.1 1015.0 0.0
20/06:30pm 24.9 21.3 15.2 54 5.8 E 28 37 15 20 1014.6 1014.5 0.0
20/06:00pm 24.7 21.5 15.3 56 5.7 E 26 37 14 20 1014.1 1014.0 0.0
20/05:30pm 26.4 23.0 15.8 52 6.5 E 28 39 15 21 1013.7 1013.6 0.0
20/05:00pm 25.9 22.0 15.6 53 6.3 E 30 39 16 21 1013.4 1013.3 0.0
20/04:30pm 26.5 22.9 15.2 49 6.8 ESE 28 41 15 22 1013.3 1013.2 0.0
20/04:00pm 28.1 25.7 16.4 49 7.3 E 24 37 13 20 1013.5 1013.5 0.0
20/03:30pm 28.4 26.3 16.3 47 7.5 E 22 32 12 17 1014.2 1014.1 0.0
20/03:00pm 28.5 26.4 17.1 50 7.2 E 24 32 13 17 1014.4 1014.3 0.0
20/02:30pm 26.8 25.1 15.8 51 6.7 E 19 33 10 18 1014.7 1014.6 0.0
20/02:00pm 27.9 26.4 16.8 50 6.9 E 20 32 11 17 1014.9 1014.8 0.0
20/01:30pm 26.7 25.0 16.3 53 6.4 ESE 20 30 11 16 1015.3 1015.2 0.0
20/01:00pm 28.0 26.4 17.5 52 6.6 ESE 22 33 12 18 1015.6 1015.5 0.0
20/12:30pm 28.2 26.7 18.6 56 6.2 ESE 24 35 13 19 1016.1 1016.0 0.0
20/12:00pm 28.7 29.1 17.2 49 7.2 ENE 11 20 6 11 1016.3 1016.2 0.0
20/11:30am 27.6 27.8 17.7 54 6.2 E 13 20 7 11 1016.5 1016.4 0.0
20/11:00am 26.3 26.3 17.1 57 5.7 ESE 13 20 7 11 1016.6 1016.5 0.0
20/10:30am 25.7 25.7 16.3 56 5.8 E 11 15 6 8 1016.7 1016.6 0.0
20/10:00am 25.1 25.6 16.5 59 5.3 E 9 15 5 8 1016.7 1016.6 0.0
20/09:30am 24.4 24.7 16.9 63 4.6 SE 11 17 6 9 1016.9 1016.8 0.0
20/09:00am 24.2 24.9 17.9 68 3.9 SE 11 13 6 7 1016.8 1016.7 0.0
20/08:30am 23.8 24.7 17.5 68 3.9 ESE 9 15 5 8 1016.5 1016.4 0.0
20/08:00am 22.7 24.3 18.3 76 2.8 SSE 7 11 4 6 1016.3 1016.2 0.0
20/07:30am 21.4 22.3 17.6 79 2.3 SSW 9 11 5 6 1016.0 1015.9 0.0
20/07:00am 20.8 23.4 17.6 82 2.0 CALM 0 0 0 0 1015.8 1015.7 0.0
20/06:30am 20.5 23.4 18.1 86 1.5 CALM 0 0 0 0 1015.5 1015.4 0.0
20/06:00am 19.7 22.2 17.3 86 1.5 CALM 0 0 0 0 1015.3 1015.2 0.0
20/05:30am 19.3 21.0 17.1 87 1.3 WSW 4 6 2 3 1015.0 1014.9 0.0
20/05:00am 19.1 21.4 16.7 86 1.4 CALM 0 2 0 1 1014.6 1014.5 0.0
20/04:30am 20.0 21.0 16.4 80 2.2 S 6 7 3 4 1014.3 1014.2 0.0
20/04:00am 20.5 21.7 17.3 82 2.0 S 7 9 4 5 1014.2 1014.1 0.0
20/03:30am 21.0 23.2 17.4 80 2.2 SSW 2 7 1 4 1014.3 1014.2 0.0
20/03:00am 21.1 23.7 17.5 80 2.2 CALM 0 0 0 0 1014.5 1014.4 0.0
20/02:30am 21.4 23.7 17.6 79 2.3 SSW 2 7 1 4 1014.6 1014.5 0.0
20/02:00am 21.7 23.6 17.7 78 2.5 WSW 4 6 2 3 1015.0 1014.9 0.0
20/01:30am 21.2 23.0 17.4 79 2.3 SSE 4 6 2 3 1014.8 1014.7 0.0
20/01:00am 21.9 23.2 17.5 76 2.7 SSE 7 9 4 5 1015.2 1015.1 0.0
20/12:30am 22.0 23.3 17.6 76 2.7 S 7 7 4 4 1015.6 1015.5 0.0
20/12:00am 22.4 23.8 17.8 75 2.9 SSW 7 11 4 6 1015.7 1015.6 0.0
 
Date/Time
EDT
Temp
°C
App
Temp
°C
Dew
Point
Rel
Hum
%
Delta-T
°C
Wind Press
QNH
hPa
Press
MSL
hPa
Rain
since 9 am
mm
Dir
 
Spd
km/h
Gust
km/h
Spd
kts
Gust
kts
19/11:30pm 22.3 23.5 17.4 74 3.0 SE 7 11 4 6 1015.6 1015.5 0.0
19/11:00pm 22.6 23.5 17.5 73 3.2 SE 9 15 5 8 1015.4 1015.3 0.0
19/10:30pm 22.7 23.0 17.8 74 3.0 SE 13 20 7 11 1015.3 1015.2 0.0
19/10:00pm 23.0 24.1 17.9 73 3.2 SE 9 15 5 8 1015.2 1015.1 0.0
19/09:30pm 23.0 23.3 17.9 73 3.2 SE 13 17 7 9 1014.6 1014.5 0.0
19/09:00pm 23.2 22.4 17.9 72 3.3 SE 19 22 10 12 1014.1 1014.0 0.0
19/08:30pm 23.5 23.0 17.9 71 3.5 SE 17 24 9 13 1013.9 1013.8 0.0
19/08:00pm 23.9 22.6 18.1 70 3.6 SE 22 30 12 16 1013.3 1013.2 0.0
19/07:30pm 24.6 23.7 17.8 66 4.3 SE 19 26 10 14 1012.6 1012.5 0.0
19/07:00pm 25.3 23.1 17.0 60 5.1 SE 24 32 13 17 1012.1 1012.0 0.0
19/06:30pm 26.0 23.6 17.4 59 5.4 SE 26 35 14 19 1011.2 1011.1 0.0
19/06:00pm 26.4 23.8 17.7 58 5.5 SE 28 35 15 19 1010.7 1010.6 0.0
19/05:30pm 26.9 23.6 17.9 57 5.7 ESE 32 41 17 22 1010.0 1009.9 0.0
19/05:00pm 27.9 24.2 17.4 52 6.6 ESE 33 46 18 25 1009.1 1009.0 0.0
19/04:30pm 28.8 25.5 18.3 53 6.7 ESE 33 44 18 24 1008.7 1008.6 0.0
19/04:00pm 28.0 22.6 16.0 48 7.4 ESE 39 50 21 27 1008.5 1008.4 0.0
19/03:41pm 30.1 25.7 18.5 49 7.5 SE 39 57 21 31 1008.3 1008.2 0.0
19/03:30pm 30.3 28.3 14.0 37 9.8 SSE 17 46 9 25 1008.0 1007.9 0.0
19/03:28pm 31.8 30.4 12.1 30 11.6 S 11 41 6 22 1007.9 1007.8 0.0
19/03:00pm 35.1 32.2 8.0 19 15.2 W 13 19 7 10 1007.5 1007.4 0.0
19/02:30pm 34.4 31.9 10.9 24 13.7 SW 15 24 8 13 1007.9 1007.8 0.0
19/02:00pm 33.8 31.7 9.8 23 13.8 WNW 11 20 6 11 1008.4 1008.3 0.0
19/01:30pm 33.6 31.6 11.4 25 13.0 WNW 13 24 7 13 1008.7 1008.6 0.0
19/01:00pm 33.0 31.9 13.1 30 12.0 WSW 11 20 6 11 1009.1 1009.0 0.0
19/12:30pm 31.9 29.4 12.2 30 11.6 WSW 17 24 9 13 1009.5 1009.4 0.0
19/12:00pm 32.1 30.5 13.8 33 11.1 W 15 26 8 14 1009.7 1009.6 0.0
19/11:30am 30.2 28.9 14.7 39 9.4 WSW 15 24 8 13 1010.1 1010.0 0.0
19/11:00am 29.3 28.9 16.1 44 8.2 W 13 20 7 11 1010.3 1010.2 0.0
19/10:30am 29.5 29.8 18.0 50 7.3 W 13 24 7 13 1010.3 1010.2 0.0
19/10:00am 28.3 27.3 16.6 49 7.3 NW 17 24 9 13 1010.3 1010.2 0.0
19/09:30am 26.7 26.1 17.5 57 5.8 NNW 17 26 9 14 1010.3 1010.2 0.0
19/09:00am 25.3 24.6 18.2 64 4.5 NNW 19 24 10 13 1010.5 1010.4 17.6
19/08:30am 24.8 23.8 17.5 64 4.6 NNW 19 26 10 14 1010.4 1010.3 17.6
19/08:00am 23.5 22.5 17.5 69 3.7 NNW 19 26 10 14 1010.4 1010.3 17.6
19/07:30am 22.2 21.4 17.1 73 3.1 NNW 17 26 9 14 1010.3 1010.2 17.6
19/07:00am 20.8 19.8 16.6 77 2.5 NNW 17 22 9 12 1010.3 1010.2 17.6
19/06:30am 20.5 19.6 16.9 80 2.2 NNW 17 22 9 12 1010.2 1010.1 17.6
19/06:00am 20.2 20.1 17.0 82 1.9 NNW 13 20 7 11 1010.0 1009.9 17.6
19/05:30am 20.1 19.7 17.1 83 1.8 NNW 15 20 8 11 1009.5 1009.4 17.6
19/05:00am 20.3 19.6 17.3 83 1.8 NNW 17 24 9 13 1009.5 1009.4 17.6
19/04:30am 20.5 19.4 17.7 84 1.7 NW 20 30 11 16 1009.6 1009.5 17.6
19/04:00am 20.6 19.7 17.8 84 1.7 NW 19 26 10 14 1009.5 1009.4 17.6
19/03:30am 20.9 20.4 17.7 82 2.0 NNW 17 24 9 13 1009.5 1009.4 17.6
19/03:00am 21.4 20.3 18.6 84 1.8 N 22 28 12 15 1009.6 1009.5 17.6
19/02:30am 21.9 22.6 20.4 91 1.0 N 17 20 9 11 1010.9 1010.8 17.4
19/02:00am 22.2 24.2 20.8 92 0.9 NNW 11 15 6 8 1011.4 1011.3 17.0
19/01:30am 22.0 24.2 20.5 91 1.0 N 9 11 5 6 1011.3 1011.2 16.4
19/01:00am 22.3 25.3 20.8 91 1.0 NW 6 9 3 5 1011.4 1011.3 16.2
19/12:30am 22.2 24.5 20.7 91 1.0 S 9 17 5 9 1011.5 1011.4 15.8
19/12:00am 22.3 24.4 20.2 88 1.4 E 9 13 5 7 1010.5 1010.4 15.0
 
Date/Time
EDT
Temp
°C
App
Temp
°C
Dew
Point
Rel
Hum
%
Delta-T
°C
Wind Press
QNH
hPa
Press
MSL
hPa
Rain
since 9 am
mm
Dir
 
Spd
km/h
Gust
km/h
Spd
kts
Gust
kts
18/11:30pm 22.7 25.3 20.4 87 1.5 SSE 7 11 4 6 1010.7 1010.6 14.8
18/11:00pm 23.0 24.8 20.3 85 1.7 NNW 11 13 6 7 1010.4 1010.3 14.8
18/10:30pm 23.0 25.1 20.1 84 1.9 NNW 9 11 5 6 1010.2 1010.1 14.8
18/10:00pm 23.0 25.4 20.1 84 1.9 WNW 7 11 4 6 1010.1 1010.0 14.8
18/09:30pm 23.1 24.3 19.9 82 2.1 NW 13 20 7 11 1009.2 1009.1 14.8
18/09:00pm 23.5 24.2 19.6 79 2.5 WNW 15 22 8 12 1009.6 1009.5 14.8
18/08:30pm 23.7 24.1 19.8 79 2.5 NNW 17 22 9 12 1009.2 1009.1 14.6
18/08:00pm 23.1 25.0 19.7 81 2.2 NNW 9 13 5 7 1008.8 1008.7 14.6
18/07:30pm 22.5 23.5 19.5 83 1.9 N 13 19 7 10 1008.7 1008.6 14.6
18/07:00pm 22.1 22.8 19.6 86 1.6 N 15 19 8 10 1009.1 1009.0 14.6
18/06:30pm 22.1 22.2 20.0 88 1.3 SSW 19 28 10 15 1008.3 1008.2 14.6
18/06:05pm 21.2 17.1 19.1 88 1.3 WSW 39 74 21 40 1009.2 1009.1 13.4
18/06:00pm 20.4 15.1 18.2 87 1.4 W 43 74 23 40 1008.8 1008.7 11.0
18/05:50pm 25.3 22.7 15.9 56 5.7 W 24 69 13 37 1007.9 1007.8 0.0
18/05:48pm 30.7 31.0 20.3 53 6.9 W 19 39 10 21 1006.9 1006.8 0.0
18/05:30pm 31.3 32.5 19.9 50 7.5 WNW 13 17 7 9 1004.6 1004.5 0.0
18/05:00pm 31.7 31.7 19.0 47 8.3 NNW 17 20 9 11 1003.9 1003.8 0.0
18/04:30pm 31.7 31.9 19.3 47 8.1 N 17 22 9 12 1003.6 1003.5 0.0
18/04:00pm 32.4 31.7 18.2 42 9.2 NNW 19 26 10 14 1003.7 1003.6 0.0
18/03:30pm 33.4 33.0 17.1 37 10.4 N 15 20 8 11 1004.1 1004.0 0.0
18/03:00pm 33.8 32.6 17.1 37 10.7 N 19 24 10 13 1004.2 1004.1 0.0
18/02:30pm 34.2 34.5 18.7 40 10.1 NE 15 22 8 12 1005.7 1005.6 0.0
18/02:00pm 32.2 33.4 21.4 53 7.3 ENE 17 26 9 14 1006.4 1006.3 0.0
18/01:30pm 31.5 34.0 21.1 54 7.0 ENE 9 19 5 10 1007.0 1006.9 0.0
18/01:00pm 31.4 33.4 21.6 56 6.6 NE 13 20 7 11 1007.7 1007.6 0.0
18/12:30pm 30.5 33.0 21.8 59 5.9 NE 11 17 6 9 1008.3 1008.2 0.0
18/12:00pm 29.8 31.6 21.2 60 5.8 NE 13 19 7 10 1008.7 1008.6 0.0
18/11:30am 28.7 30.9 21.2 64 5.0 NE 11 17 6 9 1009.4 1009.3 0.0
18/11:00am 28.2 30.8 22.0 69 4.2 E 11 17 6 9 1009.8 1009.7 0.0
18/10:30am 27.5 29.7 21.8 71 3.8 E 13 17 7 9 1009.9 1009.8 0.0
18/10:00am 26.1 27.8 20.9 73 3.4 NE 13 17 7 9 1010.0 1009.9 0.0
18/09:30am 25.2 27.5 21.3 79 2.6 NE 11 15 6 8 1010.1 1010.0 0.0
18/09:00am 24.1 27.3 20.6 81 2.3 N 4 9 2 5 1009.6 1009.5 1.6
18/08:30am 24.0 26.2 21.1 84 1.9 NW 11 13 6 7 1009.8 1009.7 1.6
18/08:00am 23.6 25.0 20.3 82 2.1 NW 13 17 7 9 1009.7 1009.6 1.6
18/07:30am 23.8 26.1 21.3 86 1.6 NW 11 13 6 7 1009.7 1009.6 1.6
18/07:00am 22.6 25.3 20.7 89 1.2 WNW 7 13 4 7 1009.5 1009.4 1.6
18/06:30am 21.7 24.2 20.3 92 0.9 WNW 7 11 4 6 1009.5 1009.4 1.4
18/06:00am 21.4 23.0 20.0 92 0.9 WNW 11 15 6 8 1009.6 1009.5 1.4
18/05:30am 21.4 23.8 20.0 92 0.9 NW 7 11 4 6 1009.4 1009.3 1.4
18/05:00am 21.3 22.8 19.8 91 1.0 NE 11 11 6 6 1009.4 1009.3 1.4
18/04:30am 22.0 24.8 20.5 91 1.0 NNW 6 9 3 5 1010.2 1010.1 1.4
18/04:00am 22.6 25.1 20.3 87 1.5 N 7 7 4 4 1011.2 1011.1 1.2
18/03:30am 23.0 24.5 19.8 82 2.1 W 11 17 6 9 1011.7 1011.6 0.0
18/03:20am 23.1 24.4 20.1 83 1.9 WNW 13 15 7 8 1011.2 1011.1 0.0
18/03:00am 22.6 24.8 19.6 83 1.9 SE 7 9 4 5 1009.2 1009.1 0.0
18/02:30am 23.2 26.2 20.0 82 2.1 NE 4 7 2 4 1009.6 1009.5 0.0
18/02:00am 22.9 25.1 19.5 81 2.2 E 7 13 4 7 1009.6 1009.5 0.0
18/01:30am 23.6 25.4 19.5 78 2.6 S 9 13 5 7 1010.2 1010.1 0.0
18/01:00am 23.7 25.4 19.4 77 2.8 SSE 9 13 5 7 1010.5 1010.4 0.0
18/12:30am 23.8 25.6 19.5 77 2.8 SSW 9 13 5 7 1010.5 1010.4 0.0
18/12:00am 23.9 25.7 19.6 77 2.8 SSE 9 15 5 8 1010.4 1010.3 0.0
 
Date/Time
EDT
Temp
°C
App
Temp
°C
Dew
Point
Rel
Hum
%
Delta-T
°C
Wind Press
QNH
hPa
Press
MSL
hPa
Rain
since 9 am
mm
Dir
 
Spd
km/h
Gust
km/h
Spd
kts
Gust
kts
17/11:30pm 24.0 25.8 19.5 76 2.9 SE 9 17 5 9 1010.3 1010.2 0.0
17/11:00pm 24.4 25.2 19.9 76 2.9 SSE 15 22 8 12 1010.0 1009.9 0.0
17/10:30pm 24.6 25.1 20.1 76 2.9 SSE 17 26 9 14 1010.1 1010.0 0.0
17/10:00pm 24.9 25.6 20.4 76 2.9 SSE 17 30 9 16 1009.4 1009.3 0.0
17/09:30pm 25.1 25.6 20.8 77 2.8 SSE 19 28 10 15 1008.6 1008.5 0.0
17/09:00pm 24.9 26.5 20.8 78 2.7 SSE 13 19 7 10 1007.4 1007.3 0.0
17/08:30pm 25.3 26.2 20.8 76 3.0 SSE 17 32 9 17 1006.7 1006.6 0.0

Other Formats:

Comma delimited format used in spreadsheet applications
http://www.bom.gov.au/fwo/IDN60801/IDN60801.94573.axf

JavaScript Object Notation format (JSON) in row-major order
http://www.bom.gov.au/fwo/IDN60801/IDN60801.94573.json